< Typhoon 196434 1965 Season Typhoon 196502 >
Typhoon 196501 (PATSY)
General InformationTrack Information on Google Maps || Disaster Info.ResourceGoogle EarthGE AnimationAtom FeedGeoJSON
Detalied Best Track (Time Zone = UTC)
Year Month Day Hour Lat. Long. Pressure (hPa) Wind (kt) Class Image Chart
1965 1 17 18 9.1 128.5 1006 0 2 -- Chart
1965 1 18 00 9.4 127.9 1006 0 2 -- Chart
1965 1 18 06 9.6 127.0 1004 0 2 -- Chart
1965 1 18 12 10.4 126.5 1006 0 2 -- Chart
1965 1 18 18 11.3 126.5 1004 0 2 -- Chart
1965 1 19 00 12.3 127.0 1004 0 2 -- Chart
1965 1 19 06 13.3 127.5 1002 0 2 -- Chart
1965 1 19 12 13.8 127.9 1002 0 2 -- Chart
1965 1 19 18 14.4 128.4 1002 0 2 -- Chart
1965 1 20 00 14.7 128.8 1000 0 2 -- Chart
1965 1 20 06 15.3 129.4 995 0 9 -- Chart
1965 1 20 12 15.9 129.5 995 0 9 -- Chart
1965 1 20 18 16.5 129.7 995 0 9 -- Chart
1965 1 21 00 17.2 129.7 990 0 9 -- Chart
1965 1 21 06 17.0 128.7 990 0 9 -- Chart
1965 1 21 12 16.8 128.0 990 0 9 -- Chart
1965 1 21 18 16.5 127.5 995 0 9 -- Chart
1965 1 22 00 16.0 126.4 996 0 9 -- Chart
1965 1 22 06 15.5 125.6 996 0 9 -- Chart
1965 1 22 12 15.3 124.8 996 0 9 -- Chart
1965 1 22 18 14.9 124.1 996 0 9 -- Chart
1965 1 23 00 14.5 123.6 997 0 2 -- Chart
1965 1 23 06 14.4 122.7 1000 0 2 -- Chart
1965 1 23 12 14.2 122.2 1006 0 2 -- Chart
1965 1 23 18 14.1 121.5 1006 0 2 -- Chart
1965 1 24 00 13.9 120.0 1008 0 2 -- Chart
1965 1 24 06 13.7 119.4 1008 0 2 -- Chart
1965 1 24 12 13.5 118.5 1000 0 2 -- Chart
1965 1 24 18 13.2 117.7 1000 0 2 -- Chart
1965 1 25 00 12.9 117.0 1010 0 2 -- Chart
1965 1 25 06 12.5 116.5 1008 0 2 -- Chart
1965 1 25 12 12.3 115.8 1010 0 2 -- Chart
1965 1 25 18 12.0 115.3 1010 0 2 -- Chart
1965 1 26 00 11.6 115.0 1010 0 2 -- Chart
Japan Meteorological Agency Best Track Data | Correction Date : 1989-06-01
< Typhoon 196434 1965 Season Typhoon 196502 >

Help